KVIH/VIH METAR and TAF weather

Enter ICAO airport designator
Station Type Date Time Source
KVIH METAR 2022/07/03 14:02 UTC NOAA

KVIH 031402Z AUTO 12008KT 10SM BKN010 25/22 A3010 RMK AO2 CIG 007V013 T02500222


Station Type Date Time Source
KVIH Decoded METAR 2022/07/03 14:02 UTC NOAA

ROLLA/VICHY ROLLA NATIONAL, MO, United States (KVIH) 38-08N 91-46W 333M
Jul 03, 2022 - 10:02 AM EDT / 2022.07.03 1402 UTC
Wind: from the ESE (120 degrees) at 9 MPH (8 KT):0
Visibility: 10 mile(s):0
Sky conditions: mostly cloudy
Temperature: 77.0 F (25.0 C)
Dew Point: 72.0 F (22.2 C)
Relative Humidity: 84%
Pressure (altimeter): 30.1 in. Hg (1019 hPa)
ob: KVIH 031402Z AUTO 12008KT 10SM BKN010 25/22 A3010 RMK AO2 CIG 007V013 T02500222
cycle: 14

Station Type Date Time Source
KVIH TAF UTC NOAA

Error!

Example: see airport list